createdAt,value
2018-04-29T00:02:10.480Z,11.10
2018-04-29T00:04:37.973Z,11.10
2018-04-29T00:07:05.477Z,11.10
2018-04-29T00:09:32.970Z,11.10
2018-04-29T00:12:00.478Z,11.10
2018-04-29T00:14:27.974Z,11.10
2018-04-29T00:16:55.482Z,11.10
2018-04-29T00:19:22.972Z,11.10
2018-04-29T00:21:50.476Z,11.10
2018-04-29T00:24:17.973Z,11.10
2018-04-29T00:26:45.476Z,11.10
2018-04-29T00:29:12.969Z,11.10
2018-04-29T00:31:40.485Z,11.10
2018-04-29T00:34:07.985Z,11.20
2018-04-29T00:36:35.497Z,11.20
2018-04-29T00:39:02.996Z,11.20
2018-04-29T00:41:30.499Z,11.20
2018-04-29T00:43:57.992Z,11.20
2018-04-29T00:46:25.497Z,11.20
2018-04-29T00:48:52.981Z,11.20
2018-04-29T00:51:41.063Z,11.20
2018-04-29T00:54:08.557Z,11.10
2018-04-29T00:56:36.070Z,11.10
2018-04-29T00:59:03.630Z,11.10
2018-04-29T01:01:31.094Z,11.10
2018-04-29T01:03:58.588Z,11.10
2018-04-29T01:06:26.100Z,11.10
2018-04-29T01:08:53.591Z,11.10
2018-04-29T01:11:21.101Z,11.10
2018-04-29T01:13:48.592Z,11.10
2018-04-29T01:16:16.097Z,11.10
2018-04-29T01:18:43.594Z,11.10
2018-04-29T01:21:11.100Z,11.10
2018-04-29T01:23:38.585Z,11.10
2018-04-29T01:26:06.085Z,11.00
2018-04-29T01:28:34.365Z,11.00
2018-04-29T01:31:01.869Z,11.00
2018-04-29T01:33:29.348Z,11.00
2018-04-29T01:35:56.862Z,10.90
2018-04-29T01:38:24.360Z,10.90
2018-04-29T01:40:51.873Z,10.90
2018-04-29T01:43:19.373Z,10.90
2018-04-29T01:45:46.864Z,10.90
2018-04-29T01:48:14.373Z,10.90
2018-04-29T01:50:41.858Z,10.90
2018-04-29T01:53:09.353Z,10.80
2018-04-29T01:55:36.850Z,10.80
2018-04-29T01:58:04.348Z,10.70
2018-04-29T02:00:31.843Z,10.70
2018-04-29T02:02:59.350Z,10.60
2018-04-29T02:05:26.838Z,10.60
2018-04-29T02:07:54.349Z,10.50
2018-04-29T02:10:21.835Z,10.50
2018-04-29T02:12:49.343Z,10.50
2018-04-29T02:15:16.828Z,10.50
2018-04-29T02:17:44.341Z,10.50
2018-04-29T02:20:11.834Z,10.50
2018-04-29T02:22:39.341Z,10.50
2018-04-29T02:25:06.834Z,10.50
2018-04-29T02:27:34.341Z,10.50
2018-04-29T02:30:01.830Z,10.50
2018-04-29T02:32:29.337Z,10.40
2018-04-29T02:34:56.841Z,10.40
2018-04-29T02:37:24.352Z,10.40
2018-04-29T02:39:51.850Z,10.40
2018-04-29T02:42:19.354Z,10.40
2018-04-29T02:44:46.855Z,10.40
2018-04-29T02:47:14.355Z,10.40
2018-04-29T02:49:41.841Z,10.40
2018-04-29T02:52:09.377Z,10.40
2018-04-29T02:54:36.866Z,10.40
2018-04-29T02:57:04.353Z,10.40
2018-04-29T02:59:31.870Z,10.30
2018-04-29T03:01:59.367Z,10.30
2018-04-29T03:04:26.869Z,10.20
2018-04-29T03:06:54.356Z,10.20
2018-04-29T03:09:21.869Z,10.10
2018-04-29T03:11:49.368Z,10.10
2018-04-29T03:14:16.869Z,10.10
2018-04-29T03:16:44.349Z,10.00
2018-04-29T03:19:11.855Z,10.00
2018-04-29T03:21:39.342Z,10.00
2018-04-29T03:24:06.837Z,9.90
2018-04-29T03:26:34.327Z,9.90
2018-04-29T03:29:01.825Z,9.90
2018-04-29T03:31:29.312Z,9.80
2018-04-29T03:33:56.814Z,9.80
2018-04-29T03:36:24.302Z,9.80
2018-04-29T03:38:51.798Z,9.80
2018-04-29T03:41:19.289Z,9.70
2018-04-29T03:43:46.793Z,9.70
2018-04-29T03:46:14.273Z,9.70
2018-04-29T03:48:41.772Z,9.60
2018-04-29T03:51:09.257Z,9.60
2018-04-29T03:53:36.751Z,9.50
2018-04-29T03:56:04.282Z,9.50
2018-04-29T03:58:43.326Z,9.40
2018-04-29T04:01:22.652Z,9.40
2018-04-29T04:04:05.902Z,9.30
2018-04-29T04:06:33.377Z,9.30
2018-04-29T04:09:00.876Z,9.30
2018-04-29T04:11:28.365Z,9.30
2018-04-29T04:13:55.875Z,9.20
2018-04-29T04:16:23.365Z,9.20
2018-04-29T04:18:50.867Z,9.20
2018-04-29T04:21:18.344Z,9.20
2018-04-29T04:23:45.908Z,9.10
2018-04-29T04:26:13.337Z,9.10
2018-04-29T04:28:40.846Z,9.10
2018-04-29T04:31:08.333Z,9.10
2018-04-29T04:33:35.838Z,9.00
2018-04-29T04:36:03.325Z,9.00
2018-04-29T04:38:30.827Z,9.00
2018-04-29T04:40:59.077Z,9.00
2018-04-29T04:43:26.556Z,8.90
2018-04-29T04:45:54.058Z,9.00
2018-04-29T04:48:21.547Z,9.00
2018-04-29T04:50:49.073Z,9.00
2018-04-29T04:53:16.570Z,9.00
2018-04-29T04:55:44.066Z,9.00
2018-04-29T04:58:11.595Z,9.00
2018-04-29T05:00:39.056Z,8.90
2018-04-29T05:03:06.823Z,9.00
2018-04-29T05:05:34.333Z,8.90
2018-04-29T05:08:01.845Z,9.00
2018-04-29T05:10:29.353Z,9.00
2018-04-29T05:12:56.846Z,9.00
2018-04-29T05:15:24.345Z,9.00
2018-04-29T05:17:51.833Z,9.00
2018-04-29T05:20:19.341Z,9.10
2018-04-29T05:22:46.830Z,9.10
2018-04-29T05:25:14.331Z,9.10
2018-04-29T05:27:41.817Z,9.10
2018-04-29T05:30:09.317Z,9.20
2018-04-29T05:32:36.803Z,9.20
2018-04-29T05:35:04.307Z,9.30
2018-04-29T05:37:32.558Z,9.40
2018-04-29T05:40:00.067Z,9.30
2018-04-29T05:42:27.555Z,9.40
2018-04-29T05:44:55.057Z,9.50
2018-04-29T05:47:22.546Z,9.60
2018-04-29T05:49:50.062Z,9.70
2018-04-29T05:52:17.557Z,9.90
2018-04-29T05:54:45.061Z,10.00
2018-04-29T05:57:12.549Z,10.10
2018-04-29T05:59:40.061Z,10.30
2018-04-29T06:02:07.544Z,10.50
2018-04-29T06:04:35.053Z,10.70
2018-04-29T06:07:02.550Z,10.90
2018-04-29T06:09:30.049Z,11.20
2018-04-29T06:11:57.561Z,11.40
2018-04-29T06:14:25.890Z,11.70
2018-04-29T06:16:53.385Z,11.90
2018-04-29T06:19:21.639Z,12.30
2018-04-29T06:21:49.157Z,12.30
2018-04-29T06:24:16.649Z,12.50
2018-04-29T06:26:44.157Z,12.60
2018-04-29T06:29:11.682Z,12.80
2018-04-29T06:31:39.197Z,13.00
2018-04-29T06:34:06.685Z,13.10
2018-04-29T06:36:34.185Z,13.30
2018-04-29T06:39:01.681Z,13.60
2018-04-29T06:41:29.193Z,13.80
2018-04-29T06:43:56.685Z,13.90
2018-04-29T06:46:24.194Z,14.10
2018-04-29T06:48:51.694Z,14.10
2018-04-29T06:51:19.198Z,14.10
2018-04-29T06:53:46.695Z,14.00
2018-04-29T06:56:14.196Z,14.00
2018-04-29T06:58:41.685Z,14.10
2018-04-29T07:01:09.211Z,14.20
2018-04-29T07:03:36.709Z,14.20
2018-04-29T07:06:04.258Z,14.20
2018-04-29T07:08:32.516Z,14.40
2018-04-29T07:11:00.020Z,14.30
2018-04-29T07:13:27.514Z,14.60
2018-04-29T07:15:55.022Z,14.80
2018-04-29T07:18:22.513Z,15.10
2018-04-29T07:20:50.018Z,15.30
2018-04-29T07:23:17.505Z,15.50
2018-04-29T07:25:45.030Z,15.70
2018-04-29T07:28:12.515Z,15.80
2018-04-29T07:30:40.019Z,16.00
2018-04-29T07:33:07.513Z,16.00
2018-04-29T07:35:35.029Z,16.20
2018-04-29T07:38:02.533Z,16.30
2018-04-29T07:40:30.021Z,16.50
2018-04-29T07:42:57.558Z,16.60
2018-04-29T07:45:25.054Z,16.80
2018-04-29T07:47:52.563Z,16.90
2018-04-29T07:50:20.056Z,16.90
2018-04-29T07:52:47.559Z,17.10
2018-04-29T07:55:15.088Z,17.10
2018-04-29T07:57:42.607Z,17.10
2018-04-29T08:00:10.130Z,17.10
2018-04-29T08:02:37.633Z,17.00
2018-04-29T08:05:05.146Z,17.20
2018-04-29T08:07:32.680Z,17.30
2018-04-29T08:10:00.159Z,17.40
2018-04-29T08:12:27.675Z,17.40
2018-04-29T08:14:55.161Z,17.50
2018-04-29T08:17:22.749Z,17.50
2018-04-29T08:19:50.181Z,17.50
2018-04-29T08:22:17.723Z,17.60
2018-04-29T08:24:45.232Z,17.80
2018-04-29T08:27:12.739Z,17.90
2018-04-29T08:29:40.226Z,18.00
2018-04-29T08:32:08.501Z,18.30
2018-04-29T08:34:36.017Z,18.30
2018-04-29T08:37:03.550Z,18.50
2018-04-29T08:39:31.043Z,18.60
2018-04-29T08:41:58.616Z,18.60
2018-04-29T08:44:26.061Z,18.70
2018-04-29T08:46:54.330Z,18.80
2018-04-29T08:49:21.847Z,18.80
2018-04-29T08:51:49.336Z,18.90
2018-04-29T08:54:16.825Z,18.90
2018-04-29T08:56:45.110Z,19.10
2018-04-29T08:59:13.363Z,19.20
2018-04-29T09:01:40.891Z,19.10
2018-04-29T09:04:08.412Z,19.40
2018-04-29T09:06:35.928Z,19.40
2018-04-29T09:09:03.420Z,19.50
2018-04-29T09:11:30.935Z,19.70
2018-04-29T09:13:58.433Z,19.80
2018-04-29T09:16:25.924Z,19.80
2018-04-29T09:18:53.450Z,19.80
2018-04-29T09:21:20.938Z,19.90
2018-04-29T09:23:48.447Z,20.00
2018-04-29T09:26:15.973Z,20.10
2018-04-29T09:28:45.245Z,20.10
2018-04-29T09:31:12.769Z,20.20
2018-04-29T09:33:40.270Z,20.30
2018-04-29T09:36:07.805Z,20.40
2018-04-29T09:38:35.324Z,20.60
2018-04-29T09:41:02.808Z,20.60
2018-04-29T09:43:30.441Z,20.70
2018-04-29T09:45:57.909Z,20.80
2018-04-29T09:48:25.445Z,20.80
2018-04-29T09:50:52.966Z,20.70
2018-04-29T09:53:20.464Z,20.80
2018-04-29T09:55:48.003Z,20.80
2018-04-29T09:58:15.513Z,20.80
2018-04-29T10:00:48.580Z,20.80
2018-04-29T10:03:16.086Z,20.90
2018-04-29T10:05:43.609Z,21.10
2018-04-29T10:08:11.141Z,21.10
2018-04-29T10:10:38.634Z,21.10
2018-04-29T10:13:06.181Z,21.10
2018-04-29T10:15:33.717Z,21.20
2018-04-29T10:18:01.263Z,21.30
2018-04-29T10:20:28.745Z,21.50
2018-04-29T10:22:56.343Z,21.50
2018-04-29T10:25:23.908Z,21.60
2018-04-29T10:27:51.477Z,21.60
2018-04-29T10:30:18.961Z,21.60
2018-04-29T10:32:46.500Z,21.60
2018-04-29T10:35:13.981Z,21.70
2018-04-29T10:37:41.485Z,21.80
2018-04-29T10:40:09.031Z,21.90
2018-04-29T10:51:36.957Z,22.30
2018-04-29T10:54:04.478Z,22.40
2018-04-29T10:56:32.048Z,22.40
2018-04-29T10:58:59.520Z,22.40
2018-04-29T11:01:27.010Z,22.40
2018-04-29T11:03:54.541Z,22.40
2018-04-29T11:06:22.041Z,22.40
2018-04-29T11:08:49.593Z,22.50
2018-04-29T11:11:17.109Z,22.50
2018-04-29T11:13:44.646Z,22.60
2018-04-29T11:16:12.158Z,22.70
2018-04-29T11:18:39.722Z,22.80
2018-04-29T11:21:07.221Z,22.90
2018-04-29T11:23:34.747Z,23.10
2018-04-29T11:26:02.251Z,23.20
2018-04-29T11:28:29.780Z,23.20
2018-04-29T11:30:57.286Z,23.30
2018-04-29T11:33:24.821Z,23.20
2018-04-29T11:35:52.331Z,23.30
2018-04-29T11:38:19.837Z,23.30
2018-04-29T11:40:47.328Z,23.30
2018-04-29T11:43:14.841Z,23.30
2018-04-29T11:45:42.350Z,23.20
2018-04-29T11:48:09.858Z,23.20
2018-04-29T11:50:37.350Z,23.20
2018-04-29T11:53:04.874Z,23.20
2018-04-29T11:55:32.404Z,23.40
2018-04-29T11:57:59.957Z,23.50
2018-04-29T12:00:27.479Z,23.60
2018-04-29T12:02:54.982Z,23.50
2018-04-29T12:05:22.507Z,23.60
2018-04-29T12:07:50.006Z,23.70
2018-04-29T12:10:17.525Z,23.80
2018-04-29T12:12:45.026Z,23.90
2018-04-29T12:15:12.553Z,24.00
2018-04-29T12:17:40.082Z,24.10
2018-04-29T12:20:07.591Z,24.20
2018-04-29T12:22:35.155Z,24.20
2018-04-29T12:25:02.721Z,24.30
2018-04-29T12:27:30.269Z,24.30
2018-04-29T12:29:57.781Z,24.30
2018-04-29T12:32:25.282Z,24.30
2018-04-29T12:34:52.841Z,24.40
2018-04-29T12:37:20.362Z,24.40
2018-04-29T12:39:47.926Z,24.50
2018-04-29T12:42:15.409Z,24.60
2018-04-29T12:44:42.919Z,24.60
2018-04-29T12:47:10.414Z,24.70
2018-04-29T12:49:37.923Z,24.70
2018-04-29T12:52:05.708Z,24.70
2018-04-29T12:54:33.205Z,24.60
2018-04-29T12:57:00.719Z,24.50
2018-04-29T12:59:28.237Z,24.50
2018-04-29T13:01:55.821Z,24.60
2018-04-29T13:04:23.348Z,24.60
2018-04-29T13:06:50.829Z,24.80
2018-04-29T13:09:18.365Z,24.80
2018-04-29T13:11:45.917Z,24.90
2018-04-29T13:14:13.445Z,24.90
2018-04-29T13:16:40.961Z,25.00
2018-04-29T13:19:08.453Z,25.00
2018-04-29T13:21:35.981Z,25.10
2018-04-29T13:24:03.493Z,25.20
2018-04-29T13:26:31.044Z,25.20
2018-04-29T13:28:59.333Z,25.20
2018-04-29T13:31:26.837Z,25.10
2018-04-29T13:33:54.372Z,25.30
2018-04-29T13:36:21.937Z,25.30
2018-04-29T13:38:49.426Z,25.40
2018-04-29T13:41:16.946Z,25.40
2018-04-29T13:43:44.564Z,25.40
2018-04-29T13:46:12.092Z,25.50
2018-04-29T13:48:39.597Z,25.50
2018-04-29T13:51:07.120Z,25.50
2018-04-29T13:53:34.625Z,25.60
2018-04-29T13:56:02.170Z,25.60
2018-04-29T13:58:30.082Z,25.60
2018-04-29T14:00:57.663Z,25.60
2018-04-29T14:03:25.991Z,25.70
2018-04-29T14:05:53.971Z,25.70
2018-04-29T14:08:21.477Z,25.70
2018-04-29T14:10:49.011Z,25.60
2018-04-29T14:13:16.509Z,25.70
2018-04-29T14:15:44.037Z,25.60
2018-04-29T14:18:12.321Z,25.80
2018-04-29T14:20:39.833Z,25.70
2018-04-29T14:23:07.545Z,25.80
2018-04-29T14:25:35.057Z,25.70
2018-04-29T14:28:02.547Z,25.80
2018-04-29T14:30:30.073Z,25.80
2018-04-29T14:32:58.333Z,25.70
2018-04-29T14:35:26.669Z,25.60
2018-04-29T14:37:54.165Z,25.60
2018-04-29T14:40:21.687Z,25.60
2018-04-29T14:42:49.260Z,25.50
2018-04-29T14:45:17.554Z,25.40
2018-04-29T14:47:45.096Z,25.40
2018-04-29T14:50:12.598Z,25.40
2018-04-29T14:52:40.113Z,25.30
2018-04-29T14:55:07.615Z,25.30
2018-04-29T14:57:35.137Z,25.40
2018-04-29T15:00:02.711Z,25.40
2018-04-29T15:02:30.260Z,25.30
2018-04-29T15:04:57.793Z,25.30
2018-04-29T15:07:25.312Z,25.30
2018-04-29T15:09:52.825Z,25.40
2018-04-29T15:12:20.396Z,25.60
2018-04-29T15:14:47.912Z,25.60
2018-04-29T15:17:15.457Z,25.70
2018-04-29T15:19:50.294Z,25.80
2018-04-29T15:22:17.831Z,25.80
2018-04-29T15:24:45.331Z,25.70
2018-04-29T15:27:12.867Z,25.70
2018-04-29T15:29:40.372Z,25.60
2018-04-29T15:32:07.890Z,25.50
2018-04-29T15:34:35.432Z,25.50
2018-04-29T15:37:02.966Z,25.50
2018-04-29T15:39:30.489Z,25.40
2018-04-29T15:41:58.103Z,25.40
2018-04-29T15:44:25.610Z,25.40
2018-04-29T15:46:53.114Z,25.30
2018-04-29T15:49:21.380Z,25.20
2018-04-29T15:51:48.889Z,25.10
2018-04-29T15:54:16.407Z,25.00
2018-04-29T15:56:43.947Z,24.90
2018-04-29T15:59:12.210Z,24.90
2018-04-29T16:01:39.713Z,24.80
2018-04-29T16:04:07.215Z,24.80
2018-04-29T16:06:34.769Z,24.70
2018-04-29T16:09:02.269Z,24.70
2018-04-29T16:11:29.868Z,24.70
2018-04-29T16:13:57.382Z,24.80
2018-04-29T16:16:24.893Z,24.80
2018-04-29T16:18:52.398Z,24.90
2018-04-29T16:21:19.953Z,24.90
2018-04-29T16:23:47.478Z,24.90
2018-04-29T16:26:14.984Z,24.70
2018-04-29T16:28:42.532Z,24.80
2018-04-29T16:31:10.030Z,24.70
2018-04-29T16:33:37.561Z,24.60
2018-04-29T16:36:05.077Z,24.60
2018-04-29T16:38:32.605Z,24.50
2018-04-29T16:41:00.135Z,24.40
2018-04-29T16:43:27.640Z,24.40
2018-04-29T16:45:55.139Z,24.40
2018-04-29T16:48:22.653Z,24.40
2018-04-29T16:50:50.136Z,24.40
2018-04-29T16:53:17.645Z,24.30
2018-04-29T16:55:45.142Z,24.30
2018-04-29T16:58:12.657Z,24.30
2018-04-29T17:00:40.154Z,24.30
2018-04-29T17:03:07.702Z,24.30
2018-04-29T17:05:35.188Z,24.20
2018-04-29T17:08:02.699Z,24.10
2018-04-29T17:10:30.190Z,24.10
2018-04-29T17:12:57.704Z,24.00
2018-04-29T17:15:25.261Z,24.00
2018-04-29T17:17:52.768Z,24.00
2018-04-29T17:20:20.253Z,23.90
2018-04-29T17:22:47.756Z,23.80
2018-04-29T17:25:15.246Z,23.80
2018-04-29T17:27:42.813Z,23.80
2018-04-29T17:30:10.339Z,23.80
2018-04-29T17:32:37.925Z,23.70
2018-04-29T17:35:05.422Z,23.70
2018-04-29T17:37:32.946Z,23.60
2018-04-29T17:40:00.452Z,23.60
2018-04-29T17:48:15.285Z,23.40
2018-04-29T17:50:42.777Z,23.30
2018-04-29T17:53:10.305Z,23.20
2018-04-29T17:55:38.558Z,23.10
2018-04-29T17:58:06.074Z,23.00
2018-04-29T18:00:33.589Z,23.00
2018-04-29T18:03:01.104Z,22.90
2018-04-29T18:05:28.629Z,22.90
2018-04-29T18:07:56.148Z,22.80
2018-04-29T18:10:23.656Z,22.70
2018-04-29T18:12:51.183Z,22.60
2018-04-29T18:15:18.686Z,22.50
2018-04-29T18:17:46.200Z,22.40
2018-04-29T18:20:13.697Z,22.30
2018-04-29T18:22:41.219Z,22.20
2018-04-29T18:25:08.714Z,22.10
2018-04-29T18:27:36.285Z,22.00
2018-04-29T18:30:03.772Z,21.90
2018-04-29T18:32:31.285Z,21.80
2018-04-29T18:34:58.804Z,21.80
2018-04-29T18:37:26.298Z,21.70
2018-04-29T18:39:53.833Z,21.60
2018-04-29T18:42:21.354Z,21.60
2018-04-29T18:44:48.955Z,21.50
2018-04-29T18:47:16.389Z,21.40
2018-04-29T18:49:44.822Z,21.40
2018-04-29T18:52:12.325Z,21.30
2018-04-29T18:54:39.836Z,21.20
2018-04-29T18:57:07.329Z,21.20
2018-04-29T18:59:34.843Z,21.20
2018-04-29T19:02:02.344Z,21.20
2018-04-29T19:04:29.866Z,21.10
2018-04-29T19:06:57.369Z,21.10
2018-04-29T19:09:24.889Z,21.00
2018-04-29T19:11:52.403Z,21.00
2018-04-29T19:14:19.909Z,20.90
2018-04-29T19:16:47.417Z,20.80
2018-04-29T19:19:15.690Z,20.80
2018-04-29T19:21:43.181Z,20.70
2018-04-29T19:24:10.786Z,20.70
2018-04-29T19:26:38.229Z,20.60
2018-04-29T19:29:05.751Z,20.50
2018-04-29T19:31:33.343Z,20.40
2018-04-29T19:34:00.799Z,20.40
2018-04-29T19:36:28.290Z,20.40
2018-04-29T19:38:56.557Z,20.30
2018-04-29T19:41:24.053Z,20.20
2018-04-29T19:43:51.614Z,20.20
2018-04-29T19:46:19.065Z,20.10
2018-04-29T19:48:46.578Z,20.00
2018-04-29T19:51:14.081Z,20.00
2018-04-29T19:53:41.601Z,19.90
2018-04-29T19:56:09.097Z,19.80
2018-04-29T19:58:37.373Z,19.70
2018-04-29T20:01:04.864Z,19.60
2018-04-29T20:03:32.423Z,19.60
2018-04-29T20:05:59.912Z,19.50
2018-04-29T20:08:27.409Z,19.50
2018-04-29T20:10:54.927Z,19.40
2018-04-29T20:13:22.426Z,19.30
2018-04-29T20:15:49.942Z,19.20
2018-04-29T20:18:17.465Z,19.10
2018-04-29T20:20:44.980Z,19.00
2018-04-29T20:23:12.497Z,19.00
2018-04-29T20:25:40.013Z,18.90
2018-04-29T20:28:07.514Z,18.80
2018-04-29T20:30:35.784Z,18.70
2018-04-29T20:33:03.299Z,18.60
2018-04-29T20:35:33.574Z,18.70
2018-04-29T20:38:01.279Z,18.60
2018-04-29T20:40:28.843Z,18.50
2018-04-29T20:42:56.344Z,18.40
2018-04-29T20:45:23.857Z,18.30
2018-04-29T20:47:52.077Z,18.30
2018-04-29T20:50:19.597Z,18.20
2018-04-29T20:52:47.114Z,18.20
2018-04-29T20:55:15.332Z,18.10
2018-04-29T21:12:31.601Z,17.70
2018-04-29T21:14:59.106Z,17.60
2018-04-29T21:17:26.664Z,17.50
2018-04-29T21:19:54.129Z,17.40
2018-04-29T21:22:21.652Z,17.40
2018-04-29T21:24:49.153Z,17.30
2018-04-29T21:27:16.644Z,17.30
2018-04-29T21:29:45.358Z,17.20
2018-04-29T21:32:14.493Z,17.20
2018-04-29T21:34:42.116Z,17.10
2018-04-29T21:37:09.609Z,17.10
2018-04-29T21:39:37.098Z,17.00
2018-04-29T21:42:04.626Z,17.00
2018-04-29T21:44:32.127Z,16.90
2018-04-29T21:46:59.635Z,16.90
2018-04-29T21:49:27.139Z,16.80
2018-04-29T21:51:54.657Z,16.80
2018-04-29T21:54:22.158Z,16.80
2018-04-29T21:56:49.682Z,16.80
2018-04-29T21:59:17.176Z,16.80
2018-04-29T22:01:44.687Z,16.70
2018-04-29T22:04:12.226Z,16.70
2018-04-29T22:06:39.704Z,16.80
2018-04-29T22:09:07.184Z,16.70
2018-04-29T22:11:34.690Z,16.80
2018-04-29T22:14:02.191Z,16.70
2018-04-29T22:16:29.711Z,16.70
2018-04-29T22:18:57.203Z,16.70
2018-04-29T22:21:24.710Z,16.60
2018-04-29T22:23:52.216Z,16.70
2018-04-29T22:26:20.498Z,16.70
2018-04-29T22:28:47.994Z,16.60
2018-04-29T22:31:15.513Z,16.60
2018-04-29T22:33:43.001Z,16.60
2018-04-29T22:36:10.505Z,16.60
2018-04-29T22:38:37.997Z,16.70
2018-04-29T22:41:05.518Z,16.70
2018-04-29T22:43:33.027Z,16.60
2018-04-29T22:46:00.537Z,16.60
2018-04-29T22:48:28.028Z,16.60
2018-04-29T22:50:55.534Z,16.60
2018-04-29T22:53:23.038Z,16.60
2018-04-29T22:55:50.546Z,16.50
2018-04-29T22:58:18.049Z,16.50
2018-04-29T23:00:45.557Z,16.50
2018-04-29T23:03:13.050Z,16.50
2018-04-29T23:05:40.558Z,16.50
2018-04-29T23:08:08.061Z,16.40
2018-04-29T23:19:33.746Z,16.30
2018-04-29T23:22:01.254Z,16.20
2018-04-29T23:24:28.739Z,16.20
2018-04-29T23:26:56.253Z,16.20
2018-04-29T23:29:23.744Z,16.10
2018-04-29T23:31:51.250Z,16.10
2018-04-29T23:34:18.739Z,16.00
2018-04-29T23:36:46.251Z,15.90
2018-04-29T23:39:13.747Z,15.80
2018-04-29T23:56:25.633Z,15.90
2018-04-29T23:58:53.130Z,15.90
